createdAt,value
2019-02-04T00:02:44.934Z,101818.99
2019-02-04T00:07:47.404Z,101820.89
2019-02-04T00:12:49.867Z,101832.23
2019-02-04T00:17:52.358Z,101830.48
2019-02-04T00:22:54.800Z,101831.67
2019-02-04T00:27:57.251Z,101825.03
2019-02-04T00:32:59.705Z,101822.58
2019-02-04T00:38:02.143Z,101822.30
2019-02-04T00:43:04.613Z,101825.94
2019-02-04T00:48:07.080Z,101827.47
2019-02-04T00:53:09.526Z,101829.12
2019-02-04T00:58:11.974Z,101833.86
2019-02-04T01:03:14.416Z,101844.18
2019-02-04T01:08:16.862Z,101844.90
2019-02-04T01:13:19.302Z,101841.42
2019-02-04T01:18:21.741Z,101847.19
2019-02-04T01:23:24.174Z,101857.61
2019-02-04T01:28:26.624Z,101857.93
2019-02-04T01:33:29.069Z,101859.81
2019-02-04T01:38:31.516Z,101864.27
2019-02-04T01:43:33.974Z,101866.00
2019-02-04T01:48:36.403Z,101871.69
2019-02-04T01:53:38.846Z,101879.50
2019-02-04T01:58:41.289Z,101879.80
2019-02-04T02:03:43.745Z,101881.96
2019-02-04T02:08:46.190Z,101888.53
2019-02-04T02:13:48.644Z,101897.22
2019-02-04T02:18:51.082Z,101891.41
2019-02-04T02:23:53.526Z,101896.55
2019-02-04T02:28:55.980Z,101888.88
2019-02-04T02:33:58.421Z,101893.59
2019-02-04T02:39:00.873Z,101905.19
2019-02-04T02:44:03.334Z,101911.79
2019-02-04T02:49:05.756Z,101908.16
2019-02-04T02:54:08.197Z,101901.28
2019-02-04T02:59:10.636Z,101908.26
2019-02-04T03:04:13.093Z,101904.91
2019-02-04T03:09:15.542Z,101915.15
2019-02-04T03:14:17.995Z,101912.98
2019-02-04T03:19:20.422Z,101923.11
2019-02-04T03:24:22.870Z,101929.30
2019-02-04T03:29:25.307Z,101927.25
2019-02-04T03:34:27.756Z,101927.25
2019-02-04T03:39:30.196Z,101930.73
2019-02-04T03:44:32.645Z,101934.10
2019-02-04T03:49:35.083Z,101941.66
2019-02-04T03:54:37.531Z,101947.98
2019-02-04T03:59:39.969Z,101947.55
2019-02-04T04:04:42.455Z,101950.09
2019-02-04T04:09:44.901Z,101960.75
2019-02-04T04:14:47.340Z,101957.41
2019-02-04T04:19:49.780Z,101955.48
2019-02-04T04:24:52.235Z,101947.09
2019-02-04T04:29:54.674Z,101952.59
2019-02-04T04:34:57.114Z,101949.41
2019-02-04T04:39:59.557Z,101945.30
2019-02-04T04:45:02.011Z,101939.12
2019-02-04T04:50:04.459Z,101941.10
2019-02-04T04:55:06.904Z,101944.52
2019-02-04T05:00:09.353Z,101947.98
2019-02-04T05:05:11.784Z,101949.59
2019-02-04T05:10:14.248Z,101960.52
2019-02-04T05:15:25.912Z,101962.38
2019-02-04T05:20:28.447Z,101958.19
2019-02-04T05:25:30.880Z,101979.00
2019-02-04T05:30:33.315Z,101981.41
2019-02-04T05:35:35.756Z,101985.86
2019-02-04T05:40:38.209Z,101982.04
2019-02-04T05:45:40.682Z,101982.27
2019-02-04T05:50:43.137Z,101977.06
2019-02-04T05:55:45.577Z,101982.78
2019-02-04T06:00:48.076Z,101983.20
2019-02-04T06:05:50.479Z,101967.84
2019-02-04T06:10:52.942Z,101981.56
2019-02-04T06:15:55.396Z,101982.39
2019-02-04T06:20:57.851Z,101976.67
2019-02-04T06:26:00.344Z,101960.22
2019-02-04T06:31:02.770Z,101963.81
2019-02-04T06:36:05.385Z,101961.27
2019-02-04T06:41:07.850Z,101960.61
2019-02-04T06:46:10.274Z,101960.82
2019-02-04T06:51:12.723Z,101969.32
2019-02-04T06:56:15.200Z,101974.90
2019-02-04T07:01:17.652Z,101982.06
2019-02-04T07:06:20.109Z,102000.86
2019-02-04T07:11:22.562Z,101988.47
2019-02-04T07:16:25.104Z,101999.18
2019-02-04T07:21:27.595Z,102014.72
2019-02-04T07:26:30.034Z,102014.89
2019-02-04T07:31:32.474Z,102034.23
2019-02-04T07:36:34.915Z,102049.78
2019-02-04T07:41:37.360Z,102041.00
2019-02-04T07:46:39.823Z,102055.05
2019-02-04T07:51:42.279Z,102047.89
2019-02-04T07:56:44.823Z,102046.69
2019-02-04T08:01:47.176Z,102060.02
2019-02-04T08:06:49.624Z,102058.85
2019-02-04T08:11:52.070Z,102065.11
2019-02-04T08:16:54.609Z,102054.65
2019-02-04T08:21:57.053Z,102066.63
2019-02-04T08:26:59.500Z,102053.69
2019-02-04T08:32:01.954Z,102053.05
2019-02-04T08:37:04.412Z,102042.25
2019-02-04T08:42:06.857Z,102048.14
2019-02-04T08:47:09.363Z,102051.97
2019-02-04T08:52:11.814Z,102049.96
2019-02-04T08:57:14.283Z,102056.63
2019-02-04T09:02:16.744Z,102045.16
2019-02-04T09:07:19.137Z,102050.22
2019-02-04T09:12:21.579Z,102040.45
2019-02-04T09:17:24.041Z,102027.45
2019-02-04T09:22:26.488Z,102032.56
2019-02-04T09:27:28.937Z,102026.78
2019-02-04T09:32:31.385Z,102022.20
2019-02-04T09:37:33.835Z,102019.06
2019-02-04T09:42:36.282Z,102030.48
2019-02-04T09:47:38.744Z,102034.61
2019-02-04T09:52:41.312Z,102055.56
2019-02-04T09:57:43.662Z,102046.13
2019-02-04T10:02:46.113Z,102048.33
2019-02-04T10:07:48.557Z,102036.80
2019-02-04T10:12:52.554Z,102039.37
2019-02-04T10:17:53.453Z,102036.53
2019-02-04T10:22:55.939Z,102037.27
2019-02-04T10:27:58.352Z,102028.38
2019-02-04T10:33:00.813Z,102021.94
2019-02-04T10:38:03.314Z,102016.63
2019-02-04T10:43:05.745Z,102005.80
2019-02-04T10:48:08.306Z,102000.17
2019-02-04T10:53:10.672Z,101990.95
2019-02-04T10:58:13.184Z,101971.24
2019-02-04T11:03:15.662Z,101956.77
2019-02-04T11:08:18.080Z,101954.08
2019-02-04T11:13:20.522Z,101949.98
2019-02-04T11:18:22.988Z,101948.20
2019-02-04T11:23:25.388Z,101944.08
2019-02-04T11:28:27.858Z,101936.53
2019-02-04T11:33:30.328Z,101932.53
2019-02-04T11:38:32.791Z,101927.25
2019-02-04T11:43:35.277Z,101915.17
2019-02-04T11:48:37.681Z,101911.06
2019-02-04T11:53:40.121Z,101897.27
2019-02-04T11:58:42.591Z,101899.08
2019-02-04T12:03:45.022Z,101894.45
2019-02-04T12:08:47.464Z,101892.53
2019-02-04T12:13:49.896Z,101882.89
2019-02-04T12:18:52.338Z,101875.73
2019-02-04T12:23:54.781Z,101855.30
2019-02-04T12:28:57.883Z,101861.47
2019-02-04T12:33:59.680Z,101861.39
2019-02-04T12:39:02.121Z,101858.09
2019-02-04T12:44:04.603Z,101849.18
2019-02-04T12:49:07.039Z,101852.65
2019-02-04T12:54:09.472Z,101839.39
2019-02-04T12:59:11.918Z,101841.59
2019-02-04T13:04:14.462Z,101822.80
2019-02-04T13:09:16.934Z,101832.28
2019-02-04T13:14:19.389Z,101830.28
2019-02-04T13:19:21.841Z,101826.83
2019-02-04T13:24:24.300Z,101837.11
2019-02-04T13:29:26.752Z,101832.61
2019-02-04T13:34:29.195Z,101817.66
2019-02-04T13:39:31.657Z,101815.59
2019-02-04T13:44:34.122Z,101823.03
2019-02-04T13:49:36.557Z,101821.45
2019-02-04T13:54:38.991Z,101813.58
2019-02-04T13:59:41.430Z,101803.47
2019-02-04T14:04:43.872Z,101804.15
2019-02-04T14:09:46.312Z,101799.86
2019-02-04T14:14:48.741Z,101796.00
2019-02-04T14:19:51.206Z,101791.31
2019-02-04T14:24:53.676Z,101793.88
2019-02-04T14:29:56.127Z,101790.08
2019-02-04T14:34:58.597Z,101795.58
2019-02-04T14:40:01.036Z,101791.99
2019-02-04T14:45:12.544Z,101790.67
2019-02-04T14:50:36.443Z,101781.41
2019-02-04T14:55:53.868Z,101774.53
2019-02-04T15:01:20.947Z,101770.31
2019-02-04T15:06:26.530Z,101768.42
2019-02-04T15:11:31.722Z,101753.59
2019-02-04T15:16:43.270Z,101759.94
2019-02-04T15:21:57.662Z,101754.88
2019-02-04T15:27:20.982Z,101746.17
2019-02-04T15:32:29.751Z,101737.58
2019-02-04T15:37:50.257Z,101725.82
2019-02-04T15:43:23.494Z,101722.91
2019-02-04T15:48:26.036Z,101722.33
2019-02-04T15:53:28.492Z,101727.29
2019-02-04T15:58:30.973Z,101717.70
2019-02-04T16:03:33.453Z,101731.94
2019-02-04T16:08:35.893Z,101721.87
2019-02-04T16:13:38.337Z,101731.51
2019-02-04T16:18:40.791Z,101727.66
2019-02-04T16:23:43.275Z,101725.16
2019-02-04T16:28:45.722Z,101715.25
2019-02-04T16:33:48.173Z,101712.99
2019-02-04T16:38:50.616Z,101716.97
2019-02-04T16:43:53.098Z,101721.16
2019-02-04T16:48:55.550Z,101721.47
2019-02-04T16:53:57.991Z,101726.38
2019-02-04T16:59:00.449Z,101733.88
2019-02-04T17:04:02.895Z,101734.06
2019-02-04T17:09:05.353Z,101750.95
2019-02-04T17:14:07.828Z,101743.93
2019-02-04T17:19:10.299Z,101751.83
2019-02-04T17:24:12.747Z,101754.49
2019-02-04T17:29:15.295Z,101751.38
2019-02-04T17:34:17.748Z,101744.53
2019-02-04T17:39:20.360Z,101741.16
2019-02-04T17:44:22.826Z,101749.17
2019-02-04T17:49:25.284Z,101750.06
2019-02-04T17:54:27.721Z,101751.31
2019-02-04T17:59:30.174Z,101757.99
2019-02-04T18:04:32.621Z,101759.63
2019-02-04T18:09:35.072Z,101760.19
2019-02-04T18:14:37.734Z,101757.23
2019-02-04T18:19:40.221Z,101757.33
2019-02-04T18:24:42.656Z,101763.12
2019-02-04T18:29:45.111Z,101765.97
2019-02-04T18:34:47.561Z,101770.03
2019-02-04T18:39:50.002Z,101774.48
2019-02-04T18:44:52.473Z,101783.97
2019-02-04T18:49:54.919Z,101782.19
2019-02-04T18:54:57.357Z,101781.11
2019-02-04T18:59:59.816Z,101781.98
2019-02-04T19:05:02.308Z,101777.99
2019-02-04T19:10:04.763Z,101778.81
2019-02-04T19:15:07.217Z,101776.30
2019-02-04T19:20:12.417Z,101773.58
2019-02-04T19:25:17.825Z,101772.68
2019-02-04T19:30:26.092Z,101771.28
2019-02-04T19:35:28.559Z,101767.78
2019-02-04T19:40:31.027Z,101766.78
2019-02-04T19:45:33.486Z,101762.31
2019-02-04T19:50:35.970Z,101767.73
2019-02-04T19:55:38.451Z,101765.58
2019-02-04T20:00:40.964Z,101781.02
2019-02-04T20:05:43.414Z,101781.72
2019-02-04T20:10:45.873Z,101785.42
2019-02-04T20:15:48.344Z,101791.84
2019-02-04T20:20:50.844Z,101789.40
2019-02-04T20:25:53.322Z,101773.13
2019-02-04T20:30:55.797Z,101769.37
2019-02-04T20:35:58.266Z,101778.09
2019-02-04T20:41:00.708Z,101770.91
2019-02-04T20:46:03.178Z,101780.20
2019-02-04T20:51:05.649Z,101773.84
2019-02-04T20:56:08.139Z,101782.55
2019-02-04T21:01:10.784Z,101775.58
2019-02-04T21:06:13.081Z,101779.61
2019-02-04T21:11:15.634Z,101773.18
2019-02-04T21:16:18.014Z,101772.98
2019-02-04T21:21:20.482Z,101784.39
2019-02-04T21:26:22.996Z,101777.95
2019-02-04T21:31:25.419Z,101774.39
2019-02-04T21:36:27.886Z,101769.05
2019-02-04T21:41:30.332Z,101777.30
2019-02-04T21:46:32.777Z,101782.47
2019-02-04T21:51:35.221Z,101781.66
2019-02-04T21:56:37.679Z,101783.59
2019-02-04T22:01:40.180Z,101784.24
2019-02-04T22:06:42.625Z,101782.77
2019-02-04T22:11:45.070Z,101783.38
2019-02-04T22:16:47.535Z,101788.67
2019-02-04T22:21:49.984Z,101792.70
2019-02-04T22:26:52.455Z,101794.17
2019-02-04T22:31:54.938Z,101799.30
2019-02-04T22:36:57.344Z,101803.97
2019-02-04T22:41:59.824Z,101795.56
2019-02-04T22:47:02.269Z,101791.16
2019-02-04T22:52:04.705Z,101791.17
2019-02-04T22:57:07.149Z,101802.38
2019-02-04T23:02:09.609Z,101809.15
2019-02-04T23:07:12.134Z,101812.95
2019-02-04T23:12:14.529Z,101801.69
2019-02-04T23:17:16.987Z,101799.79
2019-02-04T23:22:19.431Z,101790.27
2019-02-04T23:27:21.896Z,101779.80
2019-02-04T23:32:24.366Z,101776.17
2019-02-04T23:37:27.050Z,101784.77
2019-02-04T23:42:29.412Z,101794.23
2019-02-04T23:47:31.846Z,101786.58
2019-02-04T23:52:34.283Z,101780.09
2019-02-04T23:57:36.753Z,101797.08
